Time;durP1;ratioP1;P1;durP2;ratioP2;P2;SDS_P1;SDS_P2;PMS_P1;PMS_P2;Temp;Humidity;BMP_temperature;BMP_pressure;BME280_temperature;BME280_humidity;BME280_pressure;Samples;Min_cycle;Max_cycle;Signal;HPM_P1;HPM_P2
2023/08/13 00:01:13;;;;;;;;;0.00;0.00;;;;;24.67;66.99;100717.97;5037879;28;45773;-77
2023/08/13 00:03:39;;;;;;;;;0.00;0.00;;;;;24.63;66.50;100711.88;5038167;28;45301;-76
2023/08/13 00:06:05;;;;;;;;;0.00;0.00;;;;;24.64;67.09;100720.75;5036928;28;45498;-77
2023/08/13 00:08:30;;;;;;;;;1.00;1.00;;;;;24.58;67.20;100729.78;5038122;28;45505;-77
2023/08/13 00:10:56;;;;;;;;;1.00;0.67;;;;;24.56;67.44;100728.94;5036479;28;45435;-76
2023/08/13 00:13:22;;;;;;;;;1.00;1.00;;;;;24.56;67.29;100726.28;5037956;28;45604;-76
2023/08/13 00:15:47;;;;;;;;;0.33;0.33;;;;;24.53;66.91;100726.34;5036160;28;45499;-76
2023/08/13 00:18:13;;;;;;;;;1.00;1.00;;;;;24.28;67.34;100694.88;5037734;28;45537;-76
2023/08/13 00:20:38;;;;;;;;;1.00;1.00;;;;;24.46;67.30;100728.25;5037787;28;45348;-76
2023/08/13 00:23:04;;;;;;;;;1.33;1.00;;;;;24.40;67.44;100720.41;5037568;28;45323;-76
2023/08/13 00:25:30;;;;;;;;;1.67;1.00;;;;;24.24;67.15;100703.88;5035919;28;45496;-76
2023/08/13 00:27:55;;;;;;;;;0.67;0.67;;;;;24.36;67.92;100716.94;5038046;28;45576;-77
2023/08/13 00:30:21;;;;;;;;;1.00;1.00;;;;;24.30;67.81;100709.06;5037760;28;46186;-77
2023/08/13 00:32:46;;;;;;;;;1.00;1.00;;;;;24.44;68.17;100729.22;5037729;28;45342;-76
2023/08/13 00:35:12;;;;;;;;;1.00;1.00;;;;;24.35;67.66;100715.19;5037480;28;45173;-76
2023/08/13 00:37:38;;;;;;;;;2.00;0.67;;;;;24.20;68.06;100692.41;5036528;28;45388;-76
2023/08/13 00:40:04;;;;;;;;;1.00;0.67;;;;;24.31;67.28;100716.19;5037352;28;45261;-77
2023/08/13 00:42:30;;;;;;;;;1.67;1.00;;;;;24.32;67.21;100725.94;5037412;28;45212;-76
2023/08/13 00:44:56;;;;;;;;;1.00;1.00;;;;;24.28;67.59;100716.25;5037410;28;45485;-77
2023/08/13 00:47:21;;;;;;;;;1.00;1.00;;;;;24.27;67.81;100711.81;5037541;28;45362;-76
2023/08/13 00:49:49;;;;;;;;;3.00;1.00;;;;;24.08;68.64;100707.84;5036771;28;45455;-77
2023/08/13 00:52:15;;;;;;;;;2.00;1.00;;;;;23.92;68.31;100704.66;5037266;28;45473;-76
2023/08/13 00:54:41;;;;;;;;;1.33;1.33;;;;;23.89;67.60;100699.38;5037463;28;45453;-77
2023/08/13 00:57:09;;;;;;;;;1.00;1.00;;;;;23.80;68.41;100708.47;5035922;28;45282;-77
2023/08/13 00:59:35;;;;;;;;;0.00;0.00;;;;;23.72;67.92;100702.38;5037148;28;45237;-75
2023/08/13 01:02:00;;;;;;;;;2.00;1.00;;;;;23.62;68.54;100693.72;5035801;28;45432;-76
2023/08/13 01:04:26;;;;;;;;;1.00;1.00;;;;;23.68;70.19;100712.25;5037152;28;45464;-76
2023/08/13 01:07:02;;;;;;;;;0.33;0.33;;;;;23.76;70.22;100718.28;5036898;28;45581;-75
2023/08/13 01:09:48;;;;;;;;;1.00;1.00;;;;;23.65;69.50;100714.09;5035639;28;45423;-76
2023/08/13 01:12:35;;;;;;;;;1.00;1.00;;;;;23.68;69.88;100714.03;5035799;28;45517;-76
2023/08/13 01:15:07;;;;;;;;;2.33;2.00;;;;;23.77;69.79;100705.81;5037150;28;45572;-77
2023/08/13 01:17:35;;;;;;;;;2.00;1.00;;;;;23.77;69.65;100712.06;5035476;28;45871;-76
2023/08/13 01:20:05;;;;;;;;;1.33;1.00;;;;;23.79;69.57;100707.56;5035582;28;45488;-77
2023/08/13 01:22:36;;;;;;;;;1.67;1.00;;;;;23.86;69.01;100703.00;5035472;28;45444;-76
2023/08/13 01:25:02;;;;;;;;;1.00;1.00;;;;;23.87;69.03;100702.06;5036219;28;45217;-76
2023/08/13 01:27:37;;;;;;;;;2.00;1.00;;;;;23.78;69.29;100707.63;5036993;28;45324;-76
2023/08/13 01:30:18;;;;;;;;;1.67;1.00;;;;;23.84;69.62;100701.28;5036343;28;46291;-75
2023/08/13 01:33:08;;;;;;;;;1.33;1.33;;;;;23.90;69.11;100712.69;5036965;28;45375;-76
2023/08/13 01:35:35;;;;;;;;;0.00;0.00;;;;;23.94;69.39;100710.81;5042734;28;45357;-76
2023/08/13 01:38:02;;;;;;;;;1.00;1.00;;;;;23.94;68.97;100711.69;5043643;28;45432;-76
2023/08/13 01:40:28;;;;;;;;;2.00;1.00;;;;;23.88;69.32;100703.84;5043203;28;45502;-77
2023/08/13 01:42:54;;;;;;;;;2.67;1.33;;;;;23.85;69.96;100693.22;5043028;28;45429;-76
2023/08/13 01:45:20;;;;;;;;;2.00;1.00;;;;;23.79;69.36;100704.03;5042109;28;45394;-76
2023/08/13 01:47:46;;;;;;;;;1.67;1.00;;;;;23.84;69.29;100702.16;5042380;28;45490;-76
2023/08/13 01:50:12;;;;;;;;;1.33;0.00;;;;;23.86;69.44;100699.44;5042291;28;45380;-77
2023/08/13 01:52:38;;;;;;;;;0.67;0.00;;;;;23.89;69.12;100700.22;5041902;28;45344;-77
2023/08/13 01:55:05;;;;;;;;;1.00;1.00;;;;;23.88;69.32;100694.97;5043222;28;45490;-77
2023/08/13 01:57:31;;;;;;;;;0.00;0.00;;;;;23.85;68.97;100693.22;5041635;28;45242;-76
2023/08/13 01:59:57;;;;;;;;;0.00;0.00;;;;;23.77;70.16;100697.81;5041658;28;46603;-76
2023/08/13 02:02:22;;;;;;;;;0.33;0.00;;;;;23.75;69.54;100692.50;5042716;28;45357;-76
2023/08/13 02:04:48;;;;;;;;;0.00;0.00;;;;;23.81;69.59;100689.75;5042070;28;45462;-76
2023/08/13 02:07:14;;;;;;;;;1.67;1.00;;;;;23.77;69.80;100671.13;5043656;28;45362;-76
2023/08/13 02:09:39;;;;;;;;;0.00;0.00;;;;;23.84;69.56;100678.13;5042977;28;45474;-77
2023/08/13 02:12:05;;;;;;;;;0.00;0.00;;;;;23.85;69.54;100663.88;5043127;28;45375;-77
2023/08/13 02:14:31;;;;;;;;;1.00;0.67;;;;;23.89;69.04;100676.22;5043275;28;45493;-76
2023/08/13 02:16:59;;;;;;;;;0.00;0.00;;;;;23.85;69.34;100673.66;5043071;28;45427;-76
2023/08/13 02:19:25;;;;;;;;;0.00;0.00;;;;;23.94;69.37;100684.16;5042971;28;45304;-76
2023/08/13 02:21:51;;;;;;;;;1.00;1.00;;;;;23.90;69.54;100680.66;5041172;28;45487;-76
2023/08/13 02:24:16;;;;;;;;;0.00;0.00;;;;;23.91;69.14;100671.72;5043380;28;45509;-76
2023/08/13 02:26:42;;;;;;;;;0.00;0.00;;;;;23.88;69.31;100666.47;5042867;28;45260;-76
2023/08/13 02:29:08;;;;;;;;;0.00;0.00;;;;;23.94;68.79;100679.69;5042842;28;45450;-76
2023/08/13 02:31:35;;;;;;;;;0.33;0.33;;;;;23.91;69.57;100668.19;5042643;28;45425;-76
2023/08/13 02:34:01;;;;;;;;;0.00;0.00;;;;;23.74;68.36;100665.91;5041433;28;45320;-76
2023/08/13 02:36:26;;;;;;;;;1.00;0.00;;;;;23.63;69.47;100667.00;5041650;28;45570;-76
2023/08/13 02:38:52;;;;;;;;;2.00;1.00;;;;;23.55;69.13;100657.41;5042517;28;46135;-76
2023/08/13 02:41:18;;;;;;;;;2.33;2.00;;;;;23.61;69.59;100662.59;5041441;28;45671;-75
2023/08/13 02:43:55;;;;;;;;;0.67;0.67;;;;;23.57;69.71;100671.59;5043123;28;45317;-76
2023/08/13 02:46:21;;;;;;;;;0.33;0.00;;;;;23.60;69.33;100658.19;5039499;28;45493;-76
2023/08/13 02:48:47;;;;;;;;;1.67;1.00;;;;;23.55;70.60;100658.28;5039163;28;45418;-76
2023/08/13 02:51:13;;;;;;;;;0.00;0.00;;;;;23.58;70.25;100650.22;5039245;28;45482;-76
2023/08/13 02:53:42;;;;;;;;;1.00;1.00;;;;;23.58;69.52;100639.56;5039332;28;45295;-76
2023/08/13 02:56:08;;;;;;;;;1.67;1.00;;;;;23.61;69.67;100644.81;5038917;28;45530;-76
2023/08/13 02:58:34;;;;;;;;;1.00;1.00;;;;;23.60;69.44;100640.41;5037426;28;46994;-77
2023/08/13 03:01:00;;;;;;;;;3.00;1.00;;;;;23.43;69.68;100607.91;5037337;28;45437;-76
2023/08/13 03:03:26;;;;;;;;;1.00;1.00;;;;;23.62;68.59;100646.56;5037697;28;45439;-77
2023/08/13 03:05:51;;;;;;;;;1.00;1.00;;;;;23.60;69.57;100648.41;5038728;28;45546;-76
2023/08/13 03:08:17;;;;;;;;;1.33;1.00;;;;;23.63;69.44;100651.00;5039110;28;45442;-76
2023/08/13 03:10:43;;;;;;;;;5.33;2.00;;;;;23.47;70.16;100633.56;5038311;28;45441;-77
2023/08/13 03:13:09;;;;;;;;;2.00;2.00;;;;;23.28;69.89;100619.78;5037232;28;45390;-76
2023/08/13 03:15:34;;;;;;;;;1.33;1.00;;;;;23.48;70.16;100638.00;5038748;28;45502;-76
2023/08/13 03:18:00;;;;;;;;;2.00;1.00;;;;;23.46;70.70;100638.94;5038660;28;46081;-76
2023/08/13 03:20:26;;;;;;;;;4.00;2.00;;;;;23.46;69.77;100641.59;5037275;28;45407;-76
2023/08/13 03:22:51;;;;;;;;;3.00;2.67;;;;;23.41;70.06;100634.59;5037455;28;45330;-76
2023/08/13 03:25:17;;;;;;;;;2.00;2.00;;;;;23.41;70.24;100631.91;5038614;28;45517;-76
2023/08/13 03:27:43;;;;;;;;;2.67;2.00;;;;;23.41;70.46;100631.91;5037173;28;45453;-76
2023/08/13 03:30:08;;;;;;;;;3.00;2.00;;;;;23.42;70.10;100644.34;5038717;28;45421;-76
2023/08/13 03:32:35;;;;;;;;;1.33;1.00;;;;;23.42;69.79;100639.00;5038718;28;45497;-76
2023/08/13 03:35:01;;;;;;;;;2.00;1.67;;;;;23.41;68.93;100631.91;5038201;28;45766;-77
2023/08/13 03:37:26;;;;;;;;;3.33;2.00;;;;;23.36;68.89;100624.94;5036788;28;46459;-76
2023/08/13 03:39:52;;;;;;;;;3.33;1.67;;;;;23.32;69.82;100634.78;5038626;28;45355;-76
2023/08/13 03:42:17;;;;;;;;;2.00;1.00;;;;;22.95;69.50;100573.38;5037716;28;45423;-76
2023/08/13 03:44:43;;;;;;;;;2.00;1.00;;;;;23.27;69.36;100628.69;5038225;28;45664;-76
2023/08/13 03:47:09;;;;;;;;;3.67;2.00;;;;;23.23;69.26;100625.19;5038152;28;46139;-76
2023/08/13 03:49:35;;;;;;;;;2.00;1.00;;;;;23.35;68.64;100634.72;5038175;28;45317;-76
2023/08/13 03:52:01;;;;;;;;;2.00;1.33;;;;;23.33;68.94;100627.66;5037008;28;45516;-76
2023/08/13 03:54:26;;;;;;;;;1.33;1.33;;;;;23.30;69.07;100622.38;5037323;28;45348;-76
2023/08/13 03:56:52;;;;;;;;;2.00;1.67;;;;;23.27;69.29;100627.81;5037407;28;45465;-76
2023/08/13 03:59:18;;;;;;;;;3.00;2.00;;;;;23.17;68.86;100614.66;5037710;28;45509;-77
2023/08/13 04:01:44;;;;;;;;;2.00;2.00;;;;;22.97;68.25;100614.16;5035627;28;45469;-76
2023/08/13 04:04:09;;;;;;;;;2.67;2.00;;;;;22.77;68.48;100604.78;5037911;28;45609;-76
2023/08/13 04:06:35;;;;;;;;;4.67;2.00;;;;;22.75;68.62;100619.03;5037985;28;45969;-76
2023/08/13 04:09:01;;;;;;;;;1.33;1.00;;;;;22.65;68.59;100618.34;5036372;28;45390;-76
2023/08/13 04:11:27;;;;;;;;;2.00;1.33;;;;;22.52;68.94;100623.03;5037164;28;45536;-76
2023/08/13 04:13:53;;;;;;;;;3.00;2.00;;;;;22.42;68.64;100616.06;5038663;28;45668;-76
2023/08/13 04:16:18;;;;;;;;;3.00;2.00;;;;;22.31;69.08;100624.25;5036791;28;45455;-76
2023/08/13 04:18:44;;;;;;;;;3.00;1.67;;;;;22.14;69.01;100619.19;5037088;28;45371;-75
2023/08/13 04:21:10;;;;;;;;;4.00;2.00;;;;;22.09;68.72;100625.50;5036539;28;45417;-76
2023/08/13 04:23:35;;;;;;;;;3.00;2.00;;;;;21.94;68.69;100618.63;5036776;28;45229;-76
2023/08/13 04:26:01;;;;;;;;;4.00;3.00;;;;;21.95;69.74;100626.59;5035866;28;45478;-76
2023/08/13 04:28:26;;;;;;;;;3.00;2.00;;;;;21.96;69.33;100624.81;5036223;28;45542;-76
2023/08/13 04:30:52;;;;;;;;;3.00;2.00;;;;;22.00;69.42;100629.19;5037905;28;45473;-76
2023/08/13 04:33:18;;;;;;;;;1.33;1.00;;;;;22.05;68.42;100622.00;5036569;28;45447;-76
2023/08/13 04:35:43;;;;;;;;;1.33;1.00;;;;;22.01;68.86;100622.97;5037605;28;45288;-76
2023/08/13 04:38:09;;;;;;;;;1.67;1.00;;;;;22.10;68.72;100629.91;5037665;28;45452;-76
2023/08/13 04:40:34;;;;;;;;;2.33;2.00;;;;;22.07;68.40;100620.19;5037683;28;45319;-76
2023/08/13 04:43:00;;;;;;;;;2.00;1.00;;;;;22.01;68.41;100615.84;5037650;28;45470;-76
2023/08/13 04:45:26;;;;;;;;;2.00;2.00;;;;;21.96;68.38;100607.06;5036703;28;45428;-76
2023/08/13 04:47:51;;;;;;;;;3.00;2.33;;;;;22.04;68.80;100612.25;5037601;28;45409;-76
2023/08/13 04:50:17;;;;;;;;;2.00;2.00;;;;;22.02;68.37;100611.41;5036240;28;45502;-76
2023/08/13 04:52:44;;;;;;;;;3.00;2.33;;;;;22.10;68.61;100616.59;5037606;28;45336;-75
2023/08/13 04:55:11;;;;;;;;;2.00;2.00;;;;;22.07;68.30;100606.91;5036841;28;45589;-76
2023/08/13 04:57:36;;;;;;;;;1.67;1.00;;;;;22.10;67.72;100614.81;5036596;28;45339;-76
2023/08/13 05:00:03;;;;;;;;;2.67;1.33;;;;;22.10;67.66;100614.81;5036969;28;45315;-76
2023/08/13 05:02:29;;;;;;;;;1.00;1.00;;;;;22.18;68.50;100612.94;5036779;28;45454;-76
2023/08/13 05:04:54;;;;;;;;;2.00;1.00;;;;;22.19;67.62;100597.84;5037329;28;45339;-76
2023/08/13 05:07:20;;;;;;;;;1.00;1.00;;;;;22.10;68.03;100582.03;5037298;28;45520;-76
2023/08/13 05:09:46;;;;;;;;;1.67;1.67;;;;;22.31;68.09;100610.97;5036449;28;45650;-76
2023/08/13 05:12:12;;;;;;;;;1.33;1.00;;;;;22.40;68.17;100602.81;5036217;28;45278;-76
2023/08/13 05:14:37;;;;;;;;;3.33;2.33;;;;;22.40;69.42;100597.50;5036653;28;46164;-76
2023/08/13 05:17:17;;;;;;;;;1.00;1.00;;;;;22.47;69.55;100594.72;5035115;28;45471;-76
2023/08/13 05:19:42;;;;;;;;;3.00;2.00;;;;;22.59;69.75;100591.81;5037116;28;45386;-76
2023/08/13 05:22:08;;;;;;;;;3.00;2.00;;;;;22.59;70.00;100592.69;5036738;28;45599;-76
2023/08/13 05:24:34;;;;;;;;;1.33;1.00;;;;;22.74;69.39;100595.97;5035285;28;46966;-76
2023/08/13 05:26:59;;;;;;;;;2.00;1.33;;;;;22.73;69.80;100594.22;5036093;28;45509;-76
2023/08/13 05:29:25;;;;;;;;;2.00;1.00;;;;;22.72;69.21;100584.47;5035573;28;45246;-76
2023/08/13 05:31:50;;;;;;;;;1.00;1.00;;;;;22.69;69.00;100569.44;5035371;28;45474;-76
2023/08/13 05:34:16;;;;;;;;;1.67;1.00;;;;;22.86;69.29;100592.19;5036394;28;46628;-76
2023/08/13 05:36:41;;;;;;;;;2.00;1.00;;;;;22.87;69.12;100584.16;5036583;28;45208;-76
2023/08/13 05:39:08;;;;;;;;;1.33;1.00;;;;;22.83;68.95;100558.50;5036777;28;45378;-76
2023/08/13 05:41:34;;;;;;;;;2.00;2.00;;;;;22.91;68.37;100585.00;5035540;28;45355;-76
2023/08/13 05:43:59;;;;;;;;;1.00;1.00;;;;;22.91;67.04;100587.66;5036412;28;45882;-76
2023/08/13 05:46:25;;;;;;;;;1.00;1.00;;;;;22.90;63.49;100578.78;5035253;28;45451;-76
2023/08/13 05:48:51;;;;;;;;;1.00;0.00;;;;;22.78;64.15;100579.03;5035638;28;45527;-76
2023/08/13 05:51:16;;;;;;;;;1.00;1.00;;;;;22.53;64.91;100576.84;5025622;28;45842;-76
2023/08/13 05:53:42;;;;;;;;;1.00;1.00;;;;;22.66;64.95;100600.56;5018825;28;45434;-76
2023/08/13 05:56:08;;;;;;;;;1.00;0.67;;;;;22.31;65.67;100584.34;5034720;28;45630;-76
2023/08/13 05:58:33;;;;;;;;;1.67;1.00;;;;;22.23;66.79;100599.53;5035003;28;45286;-75
2023/08/13 06:01:00;;;;;;;;;1.33;1.33;;;;;22.21;66.65;100598.69;5036253;28;45394;-76
2023/08/13 06:03:25;;;;;;;;;0.67;0.67;;;;;22.21;66.99;100580.06;5035116;28;46290;-75
2023/08/13 06:05:51;;;;;;;;;1.67;1.00;;;;;21.94;67.66;100531.72;5035828;28;45350;-76
2023/08/13 06:08:17;;;;;;;;;1.00;1.00;;;;;22.32;68.06;100585.22;5036331;28;45388;-76
2023/08/13 06:10:43;;;;;;;;;1.00;1.00;;;;;22.35;67.92;100575.41;5036528;28;45427;-76
2023/08/13 06:13:09;;;;;;;;;1.67;1.67;;;;;22.53;68.00;100592.81;5035758;28;46126;-77
2023/08/13 06:15:34;;;;;;;;;2.00;1.00;;;;;22.56;68.72;100594.53;5034349;28;45419;-77
2023/08/13 06:18:00;;;;;;;;;1.00;1.00;;;;;22.60;68.88;100582.91;5034849;28;45345;-76
2023/08/13 06:20:26;;;;;;;;;1.00;0.67;;;;;22.57;68.40;100591.84;5038055;28;45474;-76
2023/08/13 06:22:51;;;;;;;;;13.67;12.33;;;;;22.63;67.98;100580.22;5039211;28;45382;-76
2023/08/13 06:25:17;;;;;;;;;2.00;2.00;;;;;22.79;68.40;100592.31;5037660;28;45521;-76
2023/08/13 06:27:42;;;;;;;;;2.00;2.00;;;;;22.81;68.55;100584.31;5039626;28;45236;-76
2023/08/13 06:30:08;;;;;;;;;2.00;1.00;;;;;22.93;68.60;100586.72;5038992;28;45398;-76
2023/08/13 06:32:34;;;;;;;;;2.33;1.00;;;;;22.99;68.45;100591.91;5038261;28;45427;-76
2023/08/13 06:35:00;;;;;;;;;2.67;2.00;;;;;23.12;67.97;100603.25;5037527;28;45360;-76
2023/08/13 06:37:26;;;;;;;;;2.00;1.00;;;;;23.15;67.44;100584.50;5039069;28;45368;-76
2023/08/13 06:39:51;;;;;;;;;1.33;0.67;;;;;23.26;67.53;100597.63;5038176;28;46260;-76
2023/08/13 06:42:17;;;;;;;;;2.00;1.00;;;;;23.36;67.18;100604.50;5038871;28;46058;-76
2023/08/13 06:44:43;;;;;;;;;1.00;1.00;;;;;23.40;67.27;100597.31;5038893;28;45331;-76
2023/08/13 06:47:09;;;;;;;;;3.00;1.33;;;;;23.54;67.41;100600.53;5038450;28;45451;-76
2023/08/13 06:49:34;;;;;;;;;1.00;1.00;;;;;23.57;66.55;100596.91;5039060;28;45345;-75
2023/08/13 06:52:00;;;;;;;;;2.00;1.00;;;;;23.65;67.11;100597.63;5038996;28;46077;-76
2023/08/13 06:54:26;;;;;;;;;1.00;1.00;;;;;23.75;66.83;100600.94;5037488;28;45394;-76
2023/08/13 06:56:52;;;;;;;;;5.00;4.67;;;;;23.76;66.50;100592.91;5039297;28;45556;-76
2023/08/13 06:59:17;;;;;;;;;3.00;2.33;;;;;23.81;65.97;100599.06;5039047;28;45306;-76
2023/08/13 07:01:43;;;;;;;;;3.67;3.00;;;;;23.85;65.90;100594.50;5036311;28;46345;-76
2023/08/13 07:04:09;;;;;;;;;2.00;1.67;;;;;23.78;66.02;100599.13;5038468;28;45152;-77
2023/08/13 07:06:35;;;;;;;;;1.00;1.00;;;;;23.88;65.79;100602.44;5038633;28;45245;-76
2023/08/13 07:09:03;;;;;;;;;5.67;2.00;;;;;24.01;65.36;100616.34;5039005;28;45525;-76
2023/08/13 07:11:29;;;;;;;;;2.00;2.00;;;;;24.02;65.78;100618.13;5037575;28;46711;-76
2023/08/13 07:13:57;;;;;;;;;2.00;1.67;;;;;24.11;65.88;100620.53;5038524;28;45501;-76
2023/08/13 07:16:22;;;;;;;;;3.00;2.67;;;;;24.10;65.46;100612.59;5038933;28;45429;-76
2023/08/13 07:18:48;;;;;;;;;3.67;2.33;;;;;24.16;65.87;100615.13;5038317;28;45430;-76
2023/08/13 07:21:14;;;;;;;;;4.00;3.00;;;;;24.24;66.00;100613.13;5036902;28;47549;-77
2023/08/13 07:23:40;;;;;;;;;4.67;2.67;;;;;24.28;64.66;100601.44;5038456;28;45304;-76
2023/08/13 07:26:06;;;;;;;;;4.00;3.00;;;;;24.31;64.61;100609.41;5038602;28;45571;-77
2023/08/13 07:28:34;;;;;;;;;4.67;3.00;;;;;24.39;63.91;100604.72;5038764;28;45534;-76
2023/08/13 07:31:03;;;;;;;;;2.00;2.00;;;;;24.41;64.14;100602.91;5037289;28;45530;-76
2023/08/13 07:33:34;;;;;;;;;2.00;1.33;;;;;24.62;63.53;100608.59;5037635;28;45298;-76
2023/08/13 07:36:00;;;;;;;;;2.00;2.00;;;;;24.75;62.75;100609.13;5037881;28;45382;-76
2023/08/13 07:38:27;;;;;;;;;2.67;2.00;;;;;24.71;62.95;100616.38;5036993;28;45352;-76
2023/08/13 07:40:56;;;;;;;;;0.67;0.67;;;;;24.78;62.92;100611.72;5037027;28;45417;-75
2023/08/13 07:43:23;;;;;;;;;5.00;5.00;;;;;24.96;61.89;100603.19;5036130;28;45473;-76
2023/08/13 07:45:48;;;;;;;;;3.67;1.00;;;;;24.96;61.17;100597.84;5037671;28;45462;-76
2023/08/13 07:48:14;;;;;;;;;2.00;1.00;;;;;25.01;60.85;100614.63;5037029;28;45450;-77
2023/08/13 07:50:40;;;;;;;;;1.33;1.33;;;;;25.04;61.26;100600.28;5037274;28;46095;-77
2023/08/13 07:53:06;;;;;;;;;2.00;2.00;;;;;25.18;60.40;100603.44;5043139;28;45470;-76
2023/08/13 07:55:31;;;;;;;;;1.67;1.67;;;;;25.15;60.55;100575.94;5037158;28;45918;-77
2023/08/13 07:57:57;;;;;;;;;2.00;1.00;;;;;25.48;60.67;100584.72;5037566;28;45473;-76
2023/08/13 08:00:23;;;;;;;;;2.00;1.00;;;;;25.78;59.88;100580.22;5037609;28;45423;-76
2023/08/13 08:02:48;;;;;;;;;3.00;2.00;;;;;26.11;58.56;100600.59;5037724;28;45396;-76
2023/08/13 08:05:16;;;;;;;;;1.00;1.00;;;;;26.25;58.36;100579.59;5041956;28;45265;-76
2023/08/13 08:07:42;;;;;;;;;2.00;2.00;;;;;26.71;57.90;100594.06;5057579;28;45330;-76
2023/08/13 08:10:09;;;;;;;;;3.00;2.00;;;;;26.83;57.51;100594.53;5052466;28;47096;-75
2023/08/13 08:12:35;;;;;;;;;3.67;2.00;;;;;27.25;57.41;100596.56;5037198;28;45491;-72
2023/08/13 08:15:01;;;;;;;;;3.00;3.00;;;;;27.59;54.78;100601.47;5035932;28;45364;-74
2023/08/13 08:17:27;;;;;;;;;1.33;1.00;;;;;27.45;54.43;100596.66;5037541;28;45338;-76
2023/08/13 08:19:54;;;;;;;;;2.00;2.00;;;;;27.57;54.20;100593.53;5037612;28;45430;-72
2023/08/13 08:22:19;;;;;;;;;2.33;1.67;;;;;27.87;51.17;100589.63;5043565;28;45292;-72
2023/08/13 08:24:46;;;;;;;;;2.00;2.00;;;;;27.95;48.32;100582.16;5036604;28;45229;-71
2023/08/13 08:27:16;;;;;;;;;2.67;1.00;;;;;28.16;49.00;100580.41;5041163;28;45623;-70
2023/08/13 08:29:41;;;;;;;;;1.00;0.67;;;;;28.53;49.17;100584.19;5037099;28;45268;-67
2023/08/13 08:32:07;;;;;;;;;2.00;1.00;;;;;29.00;47.81;100577.63;5038373;28;45451;-66
2023/08/13 08:34:34;;;;;;;;;2.00;0.33;;;;;28.92;47.43;100568.06;5035541;28;45988;-73
2023/08/13 08:37:00;;;;;;;;;1.00;1.00;;;;;29.10;46.49;100574.41;5036729;28;45471;-70
2023/08/13 08:39:26;;;;;;;;;1.67;1.00;;;;;29.08;46.26;100570.94;5036447;28;45882;-70
2023/08/13 08:41:56;;;;;;;;;2.00;1.00;;;;;29.01;45.74;100574.88;5036409;28;45404;-70
2023/08/13 08:44:22;;;;;;;;;2.33;1.67;;;;;29.05;46.10;100563.03;5035594;28;45533;-70
2023/08/13 08:46:53;;;;;;;;;2.00;1.00;;;;;29.22;46.00;100561.38;5036982;28;45427;-70
2023/08/13 08:49:21;;;;;;;;;1.67;1.00;;;;;29.48;45.32;100563.69;5037129;28;45522;-69
2023/08/13 08:51:48;;;;;;;;;2.00;1.00;;;;;29.63;44.85;100553.13;5035157;28;45351;-69
2023/08/13 08:54:14;;;;;;;;;1.00;1.00;;;;;29.53;44.76;100556.25;5039180;28;45572;-66
2023/08/13 08:56:40;;;;;;;;;2.00;2.00;;;;;29.76;44.83;100550.72;5034875;28;45246;-67
2023/08/13 08:59:06;;;;;;;;;3.00;2.33;;;;;30.02;44.56;100550.25;5035824;28;45510;-67
2023/08/13 09:01:32;;;;;;;;;2.00;2.00;;;;;30.51;43.58;100546.88;5036036;28;45397;-68
2023/08/13 09:04:01;;;;;;;;;4.00;2.00;;;;;31.21;42.16;100530.50;5035882;28;45477;-70
2023/08/13 09:06:57;;;;;;;;;1.00;1.00;;;;;32.56;40.95;100538.81;5035436;28;45556;-71
2023/08/13 09:09:25;;;;;;;;;2.33;2.00;;;;;32.87;40.69;100535.06;5030742;28;46379;-69
2023/08/13 09:11:52;;;;;;;;;2.00;1.00;;;;;33.07;39.79;100531.06;5034531;28;45470;-70
2023/08/13 09:14:19;;;;;;;;;3.67;2.33;;;;;32.44;40.31;100539.53;5044911;28;45679;-69
2023/08/13 09:16:46;;;;;;;;;3.67;3.67;;;;;31.97;42.19;100546.81;5039771;28;45511;-68
2023/08/13 09:19:13;;;;;;;;;4.00;3.00;;;;;31.87;41.86;100538.41;5041169;28;46224;-69
2023/08/13 09:21:40;;;;;;;;;4.00;3.00;;;;;31.84;42.36;100538.59;5043146;28;45506;-69
2023/08/13 09:24:07;;;;;;;;;4.00;3.33;;;;;31.68;41.85;100538.63;5036820;28;47115;-70
2023/08/13 09:26:33;;;;;;;;;3.00;3.00;;;;;31.35;42.16;100533.28;5034854;28;45548;-69
2023/08/13 09:28:59;;;;;;;;;1.67;1.67;;;;;31.64;42.44;100520.00;5034449;28;45426;-73
2023/08/13 09:31:28;;;;;;;;;1.00;1.00;;;;;32.03;40.58;100518.59;5032764;28;45652;-75
2023/08/13 09:33:54;;;;;;;;;3.00;2.00;;;;;32.16;41.40;100505.22;5033026;28;45477;-77
2023/08/13 09:36:20;;;;;;;;;2.33;2.33;;;;;33.40;39.56;100510.91;5037771;28;45638;-75
2023/08/13 09:38:45;;;;;;;;;3.67;3.00;;;;;34.10;37.95;100512.53;5045306;28;45449;-76
2023/08/13 09:41:13;;;;;;;;;3.00;2.67;;;;;34.23;37.17;100486.34;5030904;28;45520;-74
2023/08/13 09:43:40;;;;;;;;;2.00;1.33;;;;;34.73;36.82;100510.03;5032294;28;45826;-76
2023/08/13 09:46:09;;;;;;;;;2.00;1.67;;;;;34.36;37.50;100504.47;5038482;28;45574;-76
2023/08/13 09:48:34;;;;;;;;;3.00;2.67;;;;;34.09;37.79;100513.53;5049962;28;46085;-76
2023/08/13 09:51:02;;;;;;;;;4.00;3.67;;;;;33.57;38.40;100509.78;5051345;28;45339;-75
2023/08/13 09:53:30;;;;;;;;;2.00;2.00;;;;;33.86;38.40;100512.38;5051643;28;45366;-75
2023/08/13 09:56:00;;;;;;;;;3.67;3.00;;;;;33.79;38.67;100514.66;5050092;28;45629;-75
2023/08/13 09:58:28;;;;;;;;;4.67;3.33;;;;;34.13;37.53;100503.34;5037439;28;45465;-75
2023/08/13 10:00:55;;;;;;;;;4.33;4.00;;;;;34.57;37.12;100496.66;5037800;28;45357;-76
2023/08/13 10:03:23;;;;;;;;;3.00;3.00;;;;;35.24;37.02;100485.50;5036682;28;45458;-76
2023/08/13 10:05:49;;;;;;;;;3.00;2.00;;;;;35.30;36.52;100500.47;5038268;28;45343;-76
2023/08/13 10:08:15;;;;;;;;;3.67;3.67;;;;;35.14;36.55;100500.72;5037880;28;46008;-75
2023/08/13 10:10:41;;;;;;;;;2.00;1.33;;;;;34.59;37.28;100487.41;5038047;28;45450;-75
2023/08/13 10:13:07;;;;;;;;;1.67;1.67;;;;;34.11;37.13;100503.44;5054298;28;45402;-74
2023/08/13 10:15:36;;;;;;;;;3.33;3.00;;;;;33.26;38.87;100454.97;5036840;28;45548;-74
2023/08/13 10:18:02;;;;;;;;;2.00;1.67;;;;;32.83;39.52;100494.78;5036182;28;45464;-74
2023/08/13 10:20:29;;;;;;;;;3.33;3.00;;;;;32.47;40.59;100486.16;5038156;28;45392;-74
2023/08/13 10:22:54;;;;;;;;;3.33;3.33;;;;;32.47;40.18;100477.16;5037354;28;45474;-74
2023/08/13 10:25:33;;;;;;;;;4.00;2.67;;;;;32.32;40.91;100472.72;5036998;28;45276;-74
2023/08/13 10:27:59;;;;;;;;;4.00;3.67;;;;;32.00;42.15;100473.72;5036200;28;46542;-75
2023/08/13 10:30:25;;;;;;;;;8.00;7.00;;;;;31.91;42.62;100472.44;5036775;28;45457;-75
2023/08/13 10:32:59;;;;;;;;;4.00;3.33;;;;;32.01;42.08;100471.88;5037677;28;45486;-74
2023/08/13 10:35:33;;;;;;;;;4.00;4.00;;;;;31.95;42.72;100480.34;5038120;28;45477;-74
2023/08/13 10:38:00;;;;;;;;;5.33;4.00;;;;;31.95;42.72;100480.34;5036021;28;45495;-74
2023/08/13 10:40:31;;;;;;;;;5.33;5.33;;;;;31.76;43.14;100475.19;5037371;28;45371;-74
2023/08/13 10:42:58;;;;;;;;;4.00;4.00;;;;;31.58;42.89;100453.72;5035280;28;45335;-74
2023/08/13 10:45:37;;;;;;;;;5.33;5.00;;;;;31.41;42.65;100443.84;5037556;28;45379;-75
2023/08/13 10:48:10;;;;;;;;;2.00;2.00;;;;;30.83;43.16;100461.53;5035975;28;47803;-74
2023/08/13 10:50:39;;;;;;;;;34.67;31.00;;;;;30.33;44.37;100459.78;5036205;28;45410;-74
2023/08/13 10:53:10;;;;;;;;;4.00;3.00;;;;;30.05;45.18;100469.31;5037605;28;45533;-75
2023/08/13 10:55:42;;;;;;;;;2.00;2.00;;;;;29.61;45.62;100445.53;5037517;28;45847;-74
2023/08/13 10:58:31;;;;;;;;;3.00;3.00;;;;;29.54;46.17;100453.06;5036034;28;48145;-75
2023/08/13 11:00:59;;;;;;;;;3.00;3.00;;;;;29.61;45.90;100452.75;5038601;28;45315;-75
2023/08/13 11:03:30;;;;;;;;;5.00;4.00;;;;;29.31;46.63;100416.53;5037272;28;45386;-74
2023/08/13 11:05:57;;;;;;;;;4.67;4.00;;;;;29.27;47.50;100423.00;5036206;28;45320;-75
2023/08/13 11:08:24;;;;;;;;;4.00;3.00;;;;;29.42;47.38;100440.19;5037541;28;46534;-76
2023/08/13 11:10:52;;;;;;;;;4.00;4.00;;;;;29.41;47.42;100425.00;5043317;28;45476;-74
2023/08/13 11:13:19;;;;;;;;;4.00;3.67;;;;;29.67;47.59;100437.13;5036465;28;45494;-76
2023/08/13 11:15:53;;;;;;;;;4.00;3.00;;;;;29.68;47.70;100421.84;5041531;28;45504;-77
2023/08/13 11:18:20;;;;;;;;;3.33;3.33;;;;;29.65;47.52;100430.09;5041744;28;45650;-74
2023/08/13 11:20:47;;;;;;;;;4.00;4.00;;;;;29.72;46.75;100420.78;5038173;28;45536;-74
2023/08/13 11:23:14;;;;;;;;;4.00;3.33;;;;;29.57;46.89;100425.09;5047597;28;45783;-74